Time;durP1;ratioP1;P1;durP2;ratioP2;P2;SDS_P1;SDS_P2;PMS_P1;PMS_P2;Temp;Humidity;BMP_temperature;BMP_pressure;BME280_temperature;BME280_humidity;BME280_pressure;Samples;Min_cycle;Max_cycle;Signal;HPM_P1;HPM_P2
2023/04/30 00:01:40;;;;;;;3.17;2.65;;;17.80;79.30;;;;;;5048418;28;20366;-55
2023/04/30 00:04:05;;;;;;;2.95;2.45;;;17.80;79.40;;;;;;5047777;28;20029;-55
2023/04/30 00:06:31;;;;;;;3.63;2.60;;;17.70;79.50;;;;;;5047921;28;20108;-55
2023/04/30 00:08:57;;;;;;;3.22;2.92;;;17.70;79.40;;;;;;5048291;28;20021;-55
2023/04/30 00:11:24;;;;;;;2.97;2.67;;;17.70;79.60;;;;;;5047754;28;20074;-56
2023/04/30 00:13:50;;;;;;;3.35;2.67;;;17.60;79.60;;;;;;5048243;28;20068;-55
2023/04/30 00:16:16;;;;;;;3.60;2.53;;;17.60;79.70;;;;;;5048583;28;20495;-55
2023/04/30 00:18:42;;;;;;;3.55;2.85;;;17.60;79.90;;;;;;5046509;28;20053;-54
2023/04/30 00:21:07;;;;;;;6.53;3.30;;;17.60;79.90;;;;;;5046989;28;20122;-55
2023/04/30 00:23:33;;;;;;;3.10;2.80;;;17.50;80.00;;;;;;5047945;28;20052;-55
2023/04/30 00:25:59;;;;;;;2.95;2.50;;;17.50;80.20;;;;;;5048075;28;20100;-55
2023/04/30 00:28:24;;;;;;;4.28;2.80;;;17.60;80.30;;;;;;5048045;28;20029;-55
2023/04/30 00:30:50;;;;;;;3.17;2.88;;;17.50;80.20;;;;;;5046305;28;20030;-55
2023/04/30 00:33:15;;;;;;;7.63;3.00;;;17.50;80.50;;;;;;5046316;28;20033;-55
2023/04/30 00:35:41;;;;;;;2.72;2.45;;;17.50;80.40;;;;;;5047270;28;20037;-55
2023/04/30 00:38:07;;;;;;;4.50;3.20;;;17.50;80.40;;;;;;5047823;28;20171;-55
2023/04/30 00:40:36;;;;;;;3.20;2.90;;;17.50;80.40;;;;;;5047745;28;20048;-55
2023/04/30 00:43:01;;;;;;;4.03;3.13;;;17.40;80.60;;;;;;5046288;28;20040;-55
2023/04/30 00:45:27;;;;;;;4.03;3.03;;;17.40;80.50;;;;;;5047520;28;20057;-55
2023/04/30 00:47:53;;;;;;;3.63;2.88;;;17.40;80.80;;;;;;5046323;28;20041;-55
2023/04/30 00:50:18;;;;;;;3.08;2.78;;;17.40;80.70;;;;;;5045926;28;20021;-55
2023/04/30 00:52:44;;;;;;;3.17;2.88;;;17.30;80.80;;;;;;5045147;28;20108;-55
2023/04/30 00:55:10;;;;;;;3.50;3.20;;;17.30;80.90;;;;;;5047374;28;20056;-55
2023/04/30 00:57:36;;;;;;;3.60;3.15;;;17.30;80.90;;;;;;5047055;28;20128;-55
2023/04/30 01:00:01;;;;;;;3.10;2.80;;;17.30;81.10;;;;;;5045730;28;20037;-55
2023/04/30 01:02:27;;;;;;;5.47;2.80;;;17.20;81.10;;;;;;5046427;28;20034;-55
2023/04/30 01:04:53;;;;;;;3.15;2.85;;;17.20;81.20;;;;;;5045752;28;20100;-55
2023/04/30 01:07:18;;;;;;;4.15;3.40;;;17.20;81.30;;;;;;5045770;28;20034;-55
2023/04/30 01:09:44;;;;;;;3.50;3.00;;;17.20;81.40;;;;;;5045703;28;20034;-55
2023/04/30 01:12:16;;;;;;;3.35;3.05;;;17.10;81.30;;;;;;5046892;28;20037;-55
2023/04/30 01:15:16;;;;;;;3.97;3.10;;;17.10;81.30;;;;;;5046394;28;20043;-54
2023/04/30 01:17:52;;;;;;;4.70;3.15;;;17.10;81.30;;;;;;5046393;28;20036;-55
2023/04/30 01:20:17;;;;;;;3.78;3.33;;;17.10;81.50;;;;;;5045927;28;20033;-55
2023/04/30 01:22:45;;;;;;;3.58;3.25;;;17.00;81.50;;;;;;5045618;28;20378;-55
2023/04/30 01:25:32;;;;;;;4.68;2.90;;;17.00;81.60;;;;;;5046884;28;20025;-55
2023/04/30 01:28:19;;;;;;;3.80;3.42;;;17.00;81.60;;;;;;5047240;28;20033;-55
2023/04/30 01:30:45;;;;;;;4.72;3.25;;;17.00;81.80;;;;;;5045482;28;20025;-55
2023/04/30 01:33:11;;;;;;;3.78;3.05;;;17.00;82.00;;;;;;5045490;28;20037;-55
2023/04/30 01:35:49;;;;;;;3.83;3.40;;;16.90;82.00;;;;;;5045419;28;20037;-55
2023/04/30 01:38:31;;;;;;;4.47;3.03;;;16.90;82.00;;;;;;5046677;28;20501;-55
2023/04/30 01:41:20;;;;;;;4.00;3.60;;;16.90;82.20;;;;;;5047047;28;20031;-55
2023/04/30 01:43:49;;;;;;;3.83;3.50;;;16.90;82.30;;;;;;5035226;28;20050;-55
2023/04/30 01:46:28;;;;;;;3.47;3.13;;;16.90;82.40;;;;;;5046404;28;20129;-55
2023/04/30 01:49:33;;;;;;;3.95;3.30;;;16.90;82.30;;;;;;5045426;28;20037;-55
2023/04/30 01:52:16;;;;;;;5.53;3.17;;;16.90;82.30;;;;;;5034914;28;20413;-55
2023/04/30 01:54:50;;;;;;;3.60;3.08;;;16.80;82.30;;;;;;5033376;28;20087;-55
2023/04/30 01:57:20;;;;;;;7.32;3.72;;;16.80;82.40;;;;;;5025882;28;20454;-55
2023/04/30 01:59:46;;;;;;;5.55;3.15;;;16.80;82.50;;;;;;5045633;28;20195;-55
2023/04/30 02:02:11;;;;;;;3.97;3.30;;;16.80;82.60;;;;;;5044820;28;20026;-55
2023/04/30 02:04:37;;;;;;;3.95;3.35;;;16.80;82.70;;;;;;5044796;28;20073;-55
2023/04/30 02:07:02;;;;;;;4.75;3.60;;;16.70;82.70;;;;;;5045918;28;20036;-55
2023/04/30 02:09:28;;;;;;;4.05;3.65;;;16.70;82.80;;;;;;5044500;28;20029;-55
2023/04/30 02:11:53;;;;;;;3.53;3.20;;;16.70;82.70;;;;;;5044249;28;20076;-55
2023/04/30 02:14:19;;;;;;;4.53;3.30;;;16.70;82.70;;;;;;5044723;28;20025;-55
2023/04/30 02:16:45;;;;;;;4.03;3.45;;;16.70;82.80;;;;;;5045785;28;20425;-55
2023/04/30 02:19:11;;;;;;;4.63;3.42;;;16.70;82.90;;;;;;5045501;28;20096;-55
2023/04/30 02:21:36;;;;;;;3.38;3.08;;;16.70;83.00;;;;;;5045410;28;20109;-55
2023/04/30 02:24:02;;;;;;;3.53;3.22;;;16.60;82.90;;;;;;5045609;28;20469;-55
2023/04/30 02:26:28;;;;;;;6.03;3.20;;;16.60;83.00;;;;;;5044345;28;20037;-54
2023/04/30 02:28:53;;;;;;;3.55;3.13;;;16.60;83.00;;;;;;5045577;28;20029;-55
2023/04/30 02:31:20;;;;;;;4.63;3.72;;;16.60;83.10;;;;;;5045547;28;20021;-55
2023/04/30 02:33:46;;;;;;;4.00;3.30;;;16.60;83.10;;;;;;5045168;28;20033;-55
2023/04/30 02:36:11;;;;;;;3.83;3.42;;;16.60;83.30;;;;;;5045567;28;20062;-55
2023/04/30 02:38:37;;;;;;;3.40;3.10;;;16.50;83.20;;;;;;5045375;28;20029;-55
2023/04/30 02:41:02;;;;;;;3.65;3.22;;;16.50;83.10;;;;;;5045278;28;20037;-55
2023/04/30 02:43:28;;;;;;;4.00;3.60;;;16.50;83.30;;;;;;5045325;28;20033;-55
2023/04/30 02:45:54;;;;;;;4.00;3.28;;;16.50;83.50;;;;;;5045365;28;20075;-55
2023/04/30 02:48:20;;;;;;;3.10;2.80;;;16.50;83.40;;;;;;5045197;28;20049;-55
2023/04/30 02:50:45;;;;;;;4.35;3.40;;;16.50;84.10;;;;;;5044908;28;20083;-55
2023/04/30 02:53:11;;;;;;;4.00;3.30;;;16.50;83.50;;;;;;5043932;28;20473;-55
2023/04/30 02:55:36;;;;;;;3.50;3.20;;;16.40;83.60;;;;;;5043507;28;20421;-55
2023/04/30 02:58:02;;;;;;;3.67;3.17;;;16.40;83.70;;;;;;5045070;28;20029;-55
2023/04/30 03:00:28;;;;;;;3.47;3.03;;;16.40;83.70;;;;;;5044982;28;20037;-55
2023/04/30 03:02:53;;;;;;;3.50;3.20;;;16.40;83.80;;;;;;5045002;28;20049;-55
2023/04/30 03:05:19;;;;;;;4.05;3.65;;;16.40;83.70;;;;;;5043294;28;20029;-55
2023/04/30 03:07:45;;;;;;;5.20;3.33;;;16.40;83.80;;;;;;5044939;28;20022;-55
2023/04/30 03:10:10;;;;;;;4.88;3.88;;;16.40;83.80;;;;;;5044711;28;20533;-55
2023/04/30 03:12:36;;;;;;;4.10;3.47;;;16.30;83.90;;;;;;5044935;28;20056;-55
2023/04/30 03:15:01;;;;;;;4.40;3.55;;;16.30;84.00;;;;;;5048349;28;20018;-55
2023/04/30 03:17:27;;;;;;;4.68;3.63;;;16.30;84.10;;;;;;5051520;28;20029;-55
2023/04/30 03:19:52;;;;;;;4.13;3.63;;;16.30;84.10;;;;;;5049897;28;20025;-55
2023/04/30 03:22:22;;;;;;;5.20;3.85;;;16.30;84.40;;;;;;5051331;28;20120;-55
2023/04/30 03:24:48;;;;;;;5.10;3.75;;;16.30;84.90;;;;;;5051447;28;20056;-55
2023/04/30 03:27:15;;;;;;;4.65;3.78;;;16.30;84.30;;;;;;5051208;28;20049;-55
2023/04/30 03:29:41;;;;;;;4.20;3.20;;;16.30;84.40;;;;;;5051194;28;20045;-55
2023/04/30 03:32:08;;;;;;;3.83;3.53;;;16.30;84.40;;;;;;5051385;28;20454;-55
2023/04/30 03:34:34;;;;;;;5.05;3.33;;;16.20;84.40;;;;;;5051425;28;20030;-55
2023/04/30 03:37:03;;;;;;;6.32;4.00;;;16.20;84.40;;;;;;5051154;28;20108;-55
2023/04/30 03:39:28;;;;;;;3.53;2.80;;;16.20;84.50;;;;;;5051429;28;20036;-55
2023/04/30 03:41:54;;;;;;;4.28;3.88;;;16.20;84.60;;;;;;5051073;28;20033;-55
2023/04/30 03:44:19;;;;;;;4.20;3.80;;;16.20;84.70;;;;;;5034046;28;20025;-55
2023/04/30 03:46:45;;;;;;;3.95;3.65;;;16.20;84.80;;;;;;5051079;28;20081;-55
2023/04/30 03:49:11;;;;;;;4.00;3.60;;;16.20;84.90;;;;;;5049789;28;20029;-55
2023/04/30 03:51:40;;;;;;;5.32;3.78;;;16.10;84.80;;;;;;5051413;28;20037;-55
2023/04/30 03:54:06;;;;;;;4.85;3.83;;;16.10;84.90;;;;;;5051181;28;20030;-55
2023/04/30 03:56:35;;;;;;;4.10;3.55;;;16.10;85.10;;;;;;5051210;28;20413;-55
2023/04/30 03:59:01;;;;;;;4.20;3.80;;;16.10;85.10;;;;;;5051641;28;20105;-55
2023/04/30 04:01:27;;;;;;;4.50;4.10;;;16.00;85.10;;;;;;5050578;28;20082;-55
2023/04/30 04:03:53;;;;;;;4.13;3.72;;;16.10;85.20;;;;;;5049798;28;20054;-55
2023/04/30 04:06:19;;;;;;;4.03;3.63;;;16.00;85.30;;;;;;5049333;28;20052;-55
2023/04/30 04:08:45;;;;;;;4.80;3.50;;;16.00;85.40;;;;;;5051306;28;20485;-55
2023/04/30 04:11:11;;;;;;;7.20;3.70;;;16.00;85.50;;;;;;5050785;28;20029;-55
2023/04/30 04:13:37;;;;;;;4.57;3.60;;;16.00;85.60;;;;;;5050728;28;20037;-55
2023/04/30 04:16:03;;;;;;;4.50;4.07;;;16.00;85.60;;;;;;5033224;28;20033;-55
2023/04/30 04:18:29;;;;;;;4.38;3.97;;;16.00;85.60;;;;;;5050696;28;20029;-55
2023/04/30 04:20:55;;;;;;;5.40;3.90;;;16.00;85.70;;;;;;5049509;28;20052;-55
2023/04/30 04:23:21;;;;;;;4.45;3.85;;;16.00;85.70;;;;;;5050945;28;20033;-55
2023/04/30 04:25:48;;;;;;;6.65;4.03;;;15.90;85.70;;;;;;5048469;28;20034;-55
2023/04/30 04:28:15;;;;;;;4.63;3.80;;;15.90;85.80;;;;;;5047453;28;20095;-55
2023/04/30 04:30:41;;;;;;;3.85;3.45;;;15.90;85.90;;;;;;5047847;28;20029;-55
2023/04/30 04:33:07;;;;;;;4.40;4.00;;;15.90;86.00;;;;;;5047654;28;20029;-55
2023/04/30 04:35:33;;;;;;;4.82;4.07;;;15.90;86.10;;;;;;5047224;28;20017;-55
2023/04/30 04:38:00;;;;;;;5.90;4.15;;;15.90;86.20;;;;;;5047800;28;20037;-55
2023/04/30 04:40:25;;;;;;;4.40;4.00;;;15.90;86.20;;;;;;5046079;28;20025;-55
2023/04/30 04:42:51;;;;;;;4.00;3.60;;;15.90;86.20;;;;;;5047824;28;20438;-55
2023/04/30 04:45:18;;;;;;;5.22;4.28;;;15.90;86.10;;;;;;5047369;28;20033;-55
2023/04/30 04:47:43;;;;;;;4.68;4.15;;;15.90;86.10;;;;;;5047532;28;20061;-55
2023/04/30 04:50:09;;;;;;;5.93;3.97;;;15.90;86.20;;;;;;5046784;28;20057;-55
2023/04/30 04:52:35;;;;;;;4.70;3.72;;;15.80;86.30;;;;;;5047758;28;20029;-55
2023/04/30 04:55:01;;;;;;;4.75;3.83;;;15.90;86.40;;;;;;5047247;28;20412;-55
2023/04/30 04:57:27;;;;;;;3.80;3.50;;;15.80;86.40;;;;;;5047214;28;20438;-56
2023/04/30 04:59:52;;;;;;;3.90;3.60;;;15.80;86.40;;;;;;5045166;28;20040;-55
2023/04/30 05:02:18;;;;;;;4.75;4.25;;;15.80;86.50;;;;;;5047040;28;20505;-55
2023/04/30 05:04:46;;;;;;;5.47;4.68;;;15.80;86.50;;;;;;5047193;28;20049;-55
2023/04/30 05:07:11;;;;;;;4.53;3.90;;;15.80;86.60;;;;;;5045880;28;20029;-55
2023/04/30 05:09:37;;;;;;;5.18;3.60;;;15.80;86.70;;;;;;5047625;28;20021;-54
2023/04/30 05:12:04;;;;;;;4.25;3.85;;;15.80;87.30;;;;;;5046845;28;20103;-55
2023/04/30 05:14:30;;;;;;;3.88;3.55;;;15.80;86.70;;;;;;5046673;28;20025;-55
2023/04/30 05:16:55;;;;;;;4.55;3.97;;;15.70;86.70;;;;;;5046943;28;20084;-55
2023/04/30 05:19:21;;;;;;;5.13;4.10;;;15.70;86.80;;;;;;5045898;28;20470;-55
2023/04/30 05:21:46;;;;;;;4.75;4.25;;;15.80;86.80;;;;;;5045425;28;20056;-52
2023/04/30 05:24:12;;;;;;;6.18;4.53;;;15.80;86.90;;;;;;5046309;28;20044;-54
2023/04/30 05:26:38;;;;;;;5.80;3.92;;;15.70;86.80;;;;;;5048118;28;20040;-55
2023/04/30 05:29:03;;;;;;;5.15;3.55;;;15.80;87.00;;;;;;5045246;28;20045;-55
2023/04/30 05:31:31;;;;;;;5.03;4.38;;;15.70;86.90;;;;;;5046602;28;20489;-55
2023/04/30 05:33:56;;;;;;;4.60;4.20;;;15.80;87.60;;;;;;5045564;28;20419;-55
2023/04/30 05:36:22;;;;;;;4.45;4.05;;;15.70;86.90;;;;;;5046961;28;20029;-55
2023/04/30 05:38:48;;;;;;;4.93;4.15;;;15.70;87.00;;;;;;5046263;28;20036;-55
2023/04/30 05:41:14;;;;;;;4.75;3.97;;;15.80;87.00;;;;;;5045591;28;20033;-55
2023/04/30 05:43:40;;;;;;;5.75;3.97;;;15.70;87.10;;;;;;5046677;28;20040;-55
2023/04/30 05:46:06;;;;;;;4.50;4.10;;;15.70;87.00;;;;;;5046348;28;20036;-55
2023/04/30 05:48:31;;;;;;;4.65;4.25;;;15.70;87.00;;;;;;5046044;28;20042;-55
2023/04/30 05:50:57;;;;;;;5.63;4.00;;;15.70;87.70;;;;;;5044750;28;20036;-55
2023/04/30 05:53:23;;;;;;;4.50;4.07;;;15.70;87.10;;;;;;5046072;28;20071;-55
2023/04/30 05:55:48;;;;;;;4.38;3.97;;;15.70;87.20;;;;;;5046016;28;20063;-55
2023/04/30 05:58:14;;;;;;;4.35;3.95;;;15.70;87.10;;;;;;5044833;28;20495;-55
2023/04/30 06:00:40;;;;;;;5.28;4.05;;;15.80;87.20;;;;;;5045801;28;20401;-55
2023/04/30 06:03:06;;;;;;;6.38;3.88;;;15.70;87.20;;;;;;5045782;28;20490;-55
2023/04/30 06:05:32;;;;;;;4.22;3.78;;;15.70;87.20;;;;;;5044830;28;20080;-54
2023/04/30 06:07:57;;;;;;;4.60;3.90;;;15.70;87.20;;;;;;5045936;28;20074;-54
2023/04/30 06:10:23;;;;;;;4.25;3.85;;;15.70;87.30;;;;;;5046188;28;20033;-55
2023/04/30 06:12:48;;;;;;;6.28;4.05;;;15.80;87.40;;;;;;5045835;28;20071;-55
2023/04/30 06:15:14;;;;;;;4.60;4.10;;;15.80;87.30;;;;;;5046030;28;20077;-55
2023/04/30 06:17:39;;;;;;;5.82;3.85;;;15.70;87.30;;;;;;5044405;28;20029;-55
2023/04/30 06:20:06;;;;;;;5.28;4.38;;;15.80;87.40;;;;;;5045682;28;20360;-55
2023/04/30 06:22:32;;;;;;;4.28;3.70;;;15.80;87.30;;;;;;5045722;28;20040;-55
2023/04/30 06:24:58;;;;;;;4.30;3.90;;;15.80;87.40;;;;;;5046030;28;20021;-55
2023/04/30 06:27:27;;;;;;;4.18;3.78;;;15.80;87.40;;;;;;5045270;28;20099;-55
2023/04/30 06:29:53;;;;;;;5.35;4.13;;;15.80;87.40;;;;;;5045646;28;20076;-55
2023/04/30 06:32:18;;;;;;;4.78;4.18;;;15.70;87.40;;;;;;5045335;28;20049;-55
2023/04/30 06:34:44;;;;;;;5.07;4.30;;;15.80;87.50;;;;;;5045161;28;20047;-55
2023/04/30 06:37:09;;;;;;;4.03;3.72;;;15.80;87.50;;;;;;5043848;28;20049;-55
2023/04/30 06:39:35;;;;;;;4.55;4.13;;;15.80;87.60;;;;;;5045298;28;20055;-55
2023/04/30 06:42:01;;;;;;;5.38;4.43;;;15.80;87.40;;;;;;5045426;28;20108;-55
2023/04/30 06:44:26;;;;;;;4.40;4.00;;;15.80;87.50;;;;;;5045648;28;20048;-55
2023/04/30 06:46:52;;;;;;;5.22;4.15;;;15.80;87.50;;;;;;5044964;28;20052;-55
2023/04/30 06:49:17;;;;;;;4.63;4.18;;;15.80;87.60;;;;;;5044799;28;20062;-55
2023/04/30 06:51:43;;;;;;;3.95;3.55;;;15.80;87.60;;;;;;5043973;28;20071;-55
2023/04/30 06:54:10;;;;;;;4.30;3.90;;;15.80;87.60;;;;;;5044566;28;20065;-55
2023/04/30 06:56:35;;;;;;;4.15;3.78;;;15.80;87.50;;;;;;5045353;28;20045;-55
2023/04/30 06:59:01;;;;;;;3.88;3.42;;;15.80;87.60;;;;;;5044703;28;20041;-55
2023/04/30 07:01:26;;;;;;;5.30;4.25;;;15.80;87.50;;;;;;5044848;28;20033;-55
2023/04/30 07:03:53;;;;;;;4.95;3.88;;;15.80;87.50;;;;;;5045128;28;20057;-55
2023/04/30 07:06:20;;;;;;;4.65;3.85;;;15.80;87.50;;;;;;5044528;28;20101;-55
2023/04/30 07:08:46;;;;;;;4.25;3.85;;;15.80;87.40;;;;;;5043651;28;20037;-55
2023/04/30 07:11:12;;;;;;;4.93;4.18;;;15.90;87.50;;;;;;5045068;28;20451;-55
2023/04/30 07:13:38;;;;;;;4.72;4.32;;;15.80;87.40;;;;;;5044799;28;20030;-55
2023/04/30 07:16:04;;;;;;;4.25;3.78;;;15.90;87.40;;;;;;5043719;28;20029;-56
2023/04/30 07:18:30;;;;;;;4.60;4.18;;;15.90;87.30;;;;;;5043380;28;20037;-55
2023/04/30 07:20:55;;;;;;;4.50;4.10;;;15.90;87.30;;;;;;5044901;28;20117;-55
2023/04/30 07:23:21;;;;;;;4.03;3.63;;;15.90;87.20;;;;;;5043082;28;20041;-56
2023/04/30 07:25:47;;;;;;;4.25;3.85;;;15.90;87.80;;;;;;5044487;28;20057;-55
2023/04/30 07:28:13;;;;;;;4.40;4.00;;;15.90;87.20;;;;;;5044529;28;20044;-55
2023/04/30 07:30:39;;;;;;;3.90;3.60;;;15.90;87.20;;;;;;5044797;28;20018;-55
2023/04/30 07:33:07;;;;;;;4.60;3.90;;;16.00;87.20;;;;;;5044411;28;20025;-55
2023/04/30 07:35:32;;;;;;;4.88;4.38;;;16.00;87.10;;;;;;5044648;28;20080;-55
2023/04/30 07:37:58;;;;;;;5.88;4.43;;;16.00;87.10;;;;;;5043124;28;20398;-55
2023/04/30 07:40:23;;;;;;;4.32;3.90;;;16.00;87.10;;;;;;5044795;28;20056;-55
2023/04/30 07:42:49;;;;;;;4.50;4.10;;;16.00;87.00;;;;;;5042688;28;20030;-55
2023/04/30 07:45:15;;;;;;;4.32;3.92;;;16.10;87.10;;;;;;5044277;28;20442;-55
2023/04/30 07:47:40;;;;;;;4.30;3.90;;;16.10;87.00;;;;;;5044296;28;20033;-55
2023/04/30 07:50:06;;;;;;;3.90;3.50;;;16.10;86.90;;;;;;5042422;28;20034;-55
2023/04/30 07:52:32;;;;;;;4.40;3.80;;;16.10;86.90;;;;;;5043131;28;20099;-55
2023/04/30 07:54:57;;;;;;;5.32;3.42;;;16.20;87.60;;;;;;5044061;28;20084;-55
2023/04/30 07:57:25;;;;;;;4.30;3.90;;;16.20;86.80;;;;;;5044203;28;20059;-55
2023/04/30 07:59:51;;;;;;;5.63;3.90;;;16.20;86.70;;;;;;5044395;28;20034;-55
2023/04/30 08:02:17;;;;;;;3.90;3.55;;;16.20;86.60;;;;;;5047484;28;20037;-55
2023/04/30 08:04:43;;;;;;;5.50;3.63;;;16.30;86.70;;;;;;5029620;28;20390;-55
2023/04/30 08:07:08;;;;;;;3.97;3.60;;;16.30;86.60;;;;;;5047305;28;20116;-55
2023/04/30 08:09:34;;;;;;;4.28;3.88;;;16.30;86.50;;;;;;5046279;28;20083;-55
2023/04/30 08:12:00;;;;;;;5.50;4.40;;;16.30;86.40;;;;;;5047659;28;20081;-55
2023/04/30 08:14:26;;;;;;;4.28;3.88;;;16.40;86.40;;;;;;5046935;28;20053;-55
2023/04/30 08:16:52;;;;;;;4.60;3.80;;;16.40;86.90;;;;;;5047645;28;20025;-55
2023/04/30 08:19:17;;;;;;;5.10;4.05;;;16.40;86.40;;;;;;5047316;28;20101;-55
2023/04/30 08:21:43;;;;;;;4.15;3.53;;;16.40;86.20;;;;;;5046174;28;20451;-55
2023/04/30 08:24:08;;;;;;;5.38;4.00;;;16.40;86.20;;;;;;5047310;28;20092;-55
2023/04/30 08:26:34;;;;;;;4.35;3.90;;;16.40;86.20;;;;;;5047261;28;20037;-55
2023/04/30 08:28:59;;;;;;;4.43;4.03;;;16.40;86.10;;;;;;5047108;28;20140;-55
2023/04/30 08:31:25;;;;;;;5.60;3.97;;;16.50;86.10;;;;;;5047050;28;20104;-55
2023/04/30 08:33:50;;;;;;;352.80;38.33;;;16.50;86.00;;;;;;5047147;28;20032;-55
2023/04/30 08:36:16;;;;;;;36.30;9.55;;;16.60;86.10;;;;;;5047136;28;20041;-55
2023/04/30 08:38:42;;;;;;;35.10;6.20;;;16.60;86.00;;;;;;5046703;28;20035;-55
2023/04/30 08:41:11;;;;;;;24.90;6.53;;;16.60;86.10;;;;;;5047157;28;20041;-55
2023/04/30 08:43:37;;;;;;;24.08;5.68;;;16.60;86.00;;;;;;5046693;28;20029;-55
2023/04/30 08:46:04;;;;;;;19.63;5.18;;;16.60;85.80;;;;;;5045405;28;20029;-55
2023/04/30 08:48:30;;;;;;;27.05;6.43;;;16.60;85.80;;;;;;5046018;28;20021;-55
2023/04/30 08:50:58;;;;;;;56.33;8.77;;;16.70;86.10;;;;;;5045482;28;20022;-55
2023/04/30 08:53:23;;;;;;;26.27;6.78;;;16.70;85.90;;;;;;5043737;28;20025;-55
2023/04/30 08:55:49;;;;;;;25.23;6.05;;;16.70;85.80;;;;;;5045276;28;20037;-55
2023/04/30 08:58:14;;;;;;;67.43;9.27;;;16.80;85.90;;;;;;5046938;28;20068;-55
2023/04/30 09:00:40;;;;;;;76.88;9.65;;;16.80;85.80;;;;;;5045405;28;20040;-55
2023/04/30 09:03:06;;;;;;;62.90;8.80;;;16.80;86.20;;;;;;5044847;28;20037;-55
2023/04/30 09:05:32;;;;;;;43.72;8.52;;;16.90;86.10;;;;;;5028615;28;20025;-55
2023/04/30 09:07:58;;;;;;;50.38;9.00;;;16.90;86.10;;;;;;5045651;28;20101;-55
2023/04/30 09:10:23;;;;;;;53.67;8.38;;;16.90;86.10;;;;;;5043847;28;20072;-55
2023/04/30 09:13:02;;;;;;;50.80;8.50;;;16.90;86.10;;;;;;5045203;28;20031;-55
2023/04/30 09:15:29;;;;;;;99.22;13.00;;;16.90;86.00;;;;;;5044612;28;20532;-55
2023/04/30 09:18:16;;;;;;;60.70;10.50;;;17.00;85.90;;;;;;5046399;28;20044;-55
2023/04/30 09:20:57;;;;;;;81.15;12.27;;;17.00;85.90;;;;;;5045006;28;20108;-55
2023/04/30 09:23:23;;;;;;;66.85;11.80;;;17.10;85.80;;;;;;5045873;28;20036;-55
2023/04/30 09:25:49;;;;;;;54.92;9.50;;;17.10;85.90;;;;;;5042748;28;20029;-55
2023/04/30 09:28:15;;;;;;;94.75;14.55;;;17.10;85.70;;;;;;5043709;28;20033;-55
2023/04/30 09:30:41;;;;;;;109.70;12.90;;;17.10;85.60;;;;;;5046144;28;20025;-55
2023/04/30 09:33:06;;;;;;;172.35;18.13;;;17.20;85.70;;;;;;5044273;28;20040;-55
2023/04/30 09:35:34;;;;;;;88.95;14.57;;;17.20;85.70;;;;;;5045692;28;20083;-55
2023/04/30 09:38:01;;;;;;;87.35;12.40;;;17.20;85.50;;;;;;5045351;28;20130;-55
2023/04/30 09:40:40;;;;;;;95.55;12.32;;;17.30;85.40;;;;;;5043792;28;20036;-55
2023/04/30 09:43:05;;;;;;;117.57;14.68;;;17.30;85.20;;;;;;5042716;28;20067;-55
2023/04/30 09:45:48;;;;;;;78.22;11.13;;;17.30;85.40;;;;;;5042569;28;20068;-55
2023/04/30 09:48:19;;;;;;;88.07;12.27;;;17.40;85.30;;;;;;5041353;28;20033;-55
2023/04/30 09:50:46;;;;;;;87.32;12.93;;;17.40;85.30;;;;;;5043552;28;20051;-55
2023/04/30 09:53:13;;;;;;;101.55;13.02;;;17.40;85.40;;;;;;5045439;28;20489;-55
2023/04/30 09:55:41;;;;;;;107.97;13.48;;;17.40;85.20;;;;;;5044823;28;20033;-55
2023/04/30 09:58:07;;;;;;;111.13;13.30;;;17.50;85.80;;;;;;5044735;28;20151;-55
2023/04/30 10:00:36;;;;;;;96.72;14.02;;;17.50;85.00;;;;;;5043070;28;20033;-55
2023/04/30 10:03:06;;;;;;;73.78;12.82;;;17.60;85.00;;;;;;5043835;28;20040;-55
2023/04/30 10:05:43;;;;;;;91.32;11.30;;;17.60;84.90;;;;;;5044902;28;20029;-55
2023/04/30 10:08:24;;;;;;;68.50;10.93;;;17.70;84.70;;;;;;5044530;28;20029;-55
2023/04/30 10:10:59;;;;;;;103.78;14.07;;;17.70;84.50;;;;;;5040880;28;20026;-55
2023/04/30 10:13:25;;;;;;;80.25;12.23;;;17.80;84.30;;;;;;5041462;28;20030;-55
2023/04/30 10:15:53;;;;;;;84.05;13.75;;;17.80;84.10;;;;;;5042145;28;20033;-55
2023/04/30 10:18:27;;;;;;;172.88;23.73;;;17.90;84.00;;;;;;5042989;28;20040;-55
2023/04/30 10:20:53;;;;;;;118.10;15.23;;;17.90;83.80;;;;;;5042380;28;20766;-55
2023/04/30 10:23:18;;;;;;;111.32;15.95;;;18.00;83.80;;;;;;5041822;28;20049;-55
2023/04/30 10:25:44;;;;;;;239.98;25.63;;;18.00;84.30;;;;;;5042178;28;20029;-55
2023/04/30 10:28:10;;;;;;;168.43;19.60;;;18.10;84.00;;;;;;5043062;28;20089;-55
2023/04/30 10:30:35;;;;;;;154.05;17.30;;;18.20;83.90;;;;;;5041733;28;20032;-54
2023/04/30 10:33:05;;;;;;;118.15;16.25;;;18.20;83.50;;;;;;5044968;28;20022;-55
2023/04/30 10:36:08;;;;;;;227.93;23.25;;;18.30;83.30;;;;;;5044814;28;20030;-55
2023/04/30 10:38:33;;;;;;;142.88;18.25;;;18.40;82.60;;;;;;5038593;28;20040;-55
2023/04/30 10:41:02;;;;;;;157.38;17.50;;;18.40;82.50;;;;;;5038043;28;20030;-55
2023/04/30 10:43:30;;;;;;;142.27;15.52;;;18.50;82.30;;;;;;5044203;28;20032;-55
2023/04/30 10:45:57;;;;;;;137.80;16.83;;;18.50;81.80;;;;;;5044420;28;20025;-55
2023/04/30 10:48:26;;;;;;;114.47;14.68;;;18.50;81.80;;;;;;5043245;28;20029;-55
2023/04/30 10:50:54;;;;;;;126.60;15.18;;;18.50;81.70;;;;;;5041737;28;20036;-55
2023/04/30 10:53:21;;;;;;;149.38;17.15;;;18.60;81.40;;;;;;5044172;28;20025;-55
2023/04/30 10:56:10;;;;;;;141.30;17.38;;;18.70;81.40;;;;;;5044167;28;20053;-55
2023/04/30 10:58:39;;;;;;;193.93;21.80;;;18.70;81.10;;;;;;5042702;28;20053;-55
2023/04/30 11:01:10;;;;;;;159.27;18.35;;;18.70;81.70;;;;;;5042437;28;20093;-55
2023/04/30 11:03:36;;;;;;;148.15;19.55;;;18.80;80.70;;;;;;5043318;28;20064;-55
2023/04/30 11:06:18;;;;;;;159.27;18.50;;;18.80;80.60;;;;;;5043862;28;20025;-55
2023/04/30 11:08:44;;;;;;;135.15;16.35;;;18.80;80.40;;;;;;5043930;28;20094;-56
2023/04/30 11:11:11;;;;;;;145.65;17.48;;;18.90;80.30;;;;;;5044002;28;20069;-55
2023/04/30 11:13:58;;;;;;;115.88;14.93;;;18.90;79.90;;;;;;5042839;28;20038;-55
2023/04/30 11:16:30;;;;;;;147.02;19.05;;;19.00;79.60;;;;;;5043876;28;20045;-55
2023/04/30 11:19:05;;;;;;;112.75;16.25;;;19.00;79.50;;;;;;5042439;28;20045;-55
2023/04/30 11:21:32;;;;;;;101.88;15.18;;;19.10;79.10;;;;;;5026920;28;20036;-55
2023/04/30 11:24:03;;;;;;;125.05;15.57;;;19.10;79.20;;;;;;5042409;28;20037;-55
2023/04/30 11:26:29;;;;;;;120.80;14.98;;;19.20;79.10;;;;;;5043223;28;20055;-55
2023/04/30 11:28:55;;;;;;;231.07;25.75;;;19.20;78.70;;;;;;5031703;28;20057;-55
2023/04/30 11:31:21;;;;;;;118.40;13.18;;;19.20;78.90;;;;;;5031322;28;20113;-55
2023/04/30 11:33:47;;;;;;;108.68;12.30;;;19.30;78.60;;;;;;5025439;28;20044;-55
2023/04/30 11:36:12;;;;;;;145.68;17.17;;;19.30;78.50;;;;;;5041411;28;20379;-55
2023/04/30 11:38:38;;;;;;;102.50;13.60;;;19.30;78.30;;;;;;5038491;28;20037;-54
2023/04/30 11:41:05;;;;;;;152.93;17.58;;;19.30;78.30;;;;;;5036411;28;20050;-55
2023/04/30 11:43:31;;;;;;;117.07;14.80;;;19.30;77.90;;;;;;5033298;28;20033;-55
2023/04/30 11:46:08;;;;;;;91.10;12.00;;;19.40;77.80;;;;;;5043686;28;20029;-55
2023/04/30 11:48:42;;;;;;;136.93;15.70;;;19.40;77.10;;;;;;5044108;28;20029;-55
2023/04/30 11:51:18;;;;;;;119.40;15.00;;;19.40;77.40;;;;;;5040050;28;20026;-55
2023/04/30 11:53:50;;;;;;;141.40;17.10;;;19.50;76.80;;;;;;5039626;28;20045;-55
2023/04/30 11:56:20;;;;;;;125.32;13.90;;;19.50;77.00;;;;;;5045119;28;20052;-55
2023/04/30 11:58:46;;;;;;;151.77;16.92;;;19.50;77.20;;;;;;5040973;28;20524;-55
2023/04/30 12:01:12;;;;;;;151.65;17.42;;;19.50;77.20;;;;;;5043179;28;20072;-55
2023/04/30 12:03:45;;;;;;;168.60;20.80;;;19.50;77.20;;;;;;5046972;28;20033;-55
2023/04/30 12:06:12;;;;;;;117.13;14.00;;;19.50;77.20;;;;;;5040586;28;20102;-55
2023/04/30 12:08:39;;;;;;;128.43;17.85;;;19.60;77.00;;;;;;5039232;28;20022;-55
2023/04/30 12:11:06;;;;;;;119.78;14.25;;;19.60;76.80;;;;;;5031394;28;20022;-55
2023/04/30 12:13:32;;;;;;;122.05;15.55;;;19.60;76.80;;;;;;5039829;28;20045;-55
2023/04/30 12:15:59;;;;;;;103.05;13.95;;;19.60;76.80;;;;;;5046306;28;20140;-55
2023/04/30 12:18:25;;;;;;;129.05;14.13;;;19.70;76.80;;;;;;5037450;28;20187;-60
2023/04/30 12:20:51;;;;;;;123.63;14.88;;;19.70;76.90;;;;;;5041905;28;20045;-60
2023/04/30 12:23:17;;;;;;;120.88;14.45;;;19.80;76.80;;;;;;5042975;28;20175;-60
2023/04/30 12:25:42;;;;;;;124.22;15.43;;;19.80;76.60;;;;;;5045574;28;20048;-59
2023/04/30 12:28:08;;;;;;;177.23;19.02;;;19.80;76.50;;;;;;5042538;28;20034;-59
2023/04/30 12:30:34;;;;;;;111.43;14.55;;;19.90;76.40;;;;;;5043500;28;20022;-60
2023/04/30 12:33:02;;;;;;;127.25;14.10;;;19.90;76.30;;;;;;5045337;28;20081;-60
2023/04/30 12:35:29;;;;;;;112.68;15.20;;;19.90;76.20;;;;;;5043064;28;20049;-59
2023/04/30 12:38:05;;;;;;;140.80;15.63;;;20.00;76.10;;;;;;5040907;28;20047;-59
2023/04/30 12:40:31;;;;;;;155.20;17.08;;;20.00;76.20;;;;;;5043278;28;20048;-55